createdAt,value
2022-12-01T00:00:55.155Z,2.58
2022-12-01T00:04:17.014Z,2.60
2022-12-01T00:07:38.996Z,2.59
2022-12-01T00:11:05.948Z,2.56
2022-12-01T00:14:27.870Z,2.59
2022-12-01T00:17:50.354Z,2.57
2022-12-01T00:21:15.420Z,2.56
2022-12-01T00:24:37.005Z,2.55
2022-12-01T00:28:00.305Z,2.54
2022-12-01T00:31:23.246Z,2.55
2022-12-01T00:34:45.382Z,2.55
2022-12-01T00:38:07.090Z,2.53
2022-12-01T00:41:29.037Z,2.54
2022-12-01T00:44:51.850Z,2.54
2022-12-01T00:48:13.827Z,2.53
2022-12-01T00:51:35.567Z,2.51
2022-12-01T00:54:57.347Z,2.50
2022-12-01T00:58:19.036Z,2.49
2022-12-01T01:01:42.325Z,2.48
2022-12-01T01:05:04.211Z,2.45
2022-12-01T01:08:25.795Z,2.45
2022-12-01T01:11:47.693Z,2.44
2022-12-01T01:15:10.053Z,2.43
2022-12-01T01:18:33.846Z,2.43
2022-12-01T01:21:55.456Z,2.42
2022-12-01T01:25:17.437Z,2.41
2022-12-01T01:28:41.586Z,2.40
2022-12-01T01:32:04.267Z,2.39
2022-12-01T01:35:27.298Z,2.40
2022-12-01T01:38:51.524Z,2.40
2022-12-01T01:42:14.867Z,2.40
2022-12-01T01:45:36.804Z,2.39
2022-12-01T01:49:01.440Z,2.40
2022-12-01T01:52:25.702Z,2.41
2022-12-01T01:55:47.496Z,2.40
2022-12-01T01:59:09.355Z,2.39
2022-12-01T02:02:31.431Z,2.37
2022-12-01T02:05:53.394Z,2.37
2022-12-01T02:09:16.842Z,2.36
2022-12-01T02:13:01.510Z,2.35
2022-12-01T02:16:32.323Z,2.37
2022-12-01T02:20:28.662Z,2.36
2022-12-01T02:24:28.129Z,2.35
2022-12-01T02:28:14.766Z,2.36
2022-12-01T02:31:42.795Z,2.36
2022-12-01T02:35:14.410Z,2.36
2022-12-01T02:38:40.963Z,2.36
2022-12-01T02:42:06.802Z,2.37
2022-12-01T02:45:37.212Z,2.34
2022-12-01T02:49:05.847Z,2.34
2022-12-01T02:52:29.702Z,2.34
2022-12-01T02:55:53.997Z,2.33
2022-12-01T02:59:16.418Z,2.34
2022-12-01T03:02:44.139Z,2.31
2022-12-01T03:06:15.950Z,2.32
2022-12-01T03:09:47.979Z,2.30
2022-12-01T03:13:21.298Z,2.30
2022-12-01T03:16:50.858Z,2.30
2022-12-01T03:20:19.537Z,2.28
2022-12-01T03:23:45.391Z,2.26
2022-12-01T03:27:07.634Z,2.26
2022-12-01T03:30:31.296Z,2.24
2022-12-01T03:33:58.535Z,2.22
2022-12-01T03:37:26.545Z,2.24
2022-12-01T03:40:52.846Z,2.20
2022-12-01T03:44:21.899Z,2.15
2022-12-01T03:47:43.986Z,2.13
2022-12-01T03:51:15.114Z,2.14
2022-12-01T03:54:46.742Z,2.12
2022-12-01T03:58:14.142Z,2.13
2022-12-01T04:01:36.461Z,2.10
2022-12-01T04:04:58.270Z,2.10
2022-12-01T04:08:20.097Z,2.07
2022-12-01T04:12:13.334Z,2.08
2022-12-01T04:15:36.415Z,2.07
2022-12-01T04:18:58.174Z,2.09
2022-12-01T04:22:20.257Z,2.07
2022-12-01T04:25:42.166Z,2.05
2022-12-01T04:29:06.570Z,2.04
2022-12-01T04:32:29.899Z,2.02
2022-12-01T04:35:58.089Z,2.02
2022-12-01T04:39:20.170Z,2.02
2022-12-01T04:42:42.429Z,2.01
2022-12-01T04:46:04.480Z,2.02
2022-12-01T04:49:27.650Z,1.98
2022-12-01T04:52:49.658Z,1.98
2022-12-01T04:56:11.690Z,1.99
2022-12-01T04:59:33.211Z,2.00
2022-12-01T05:02:55.109Z,2.01
2022-12-01T05:06:20.693Z,1.98
2022-12-01T05:09:42.527Z,1.98
2022-12-01T05:13:04.956Z,1.97
2022-12-01T05:16:29.059Z,1.98
2022-12-01T05:20:08.937Z,2.00
2022-12-01T05:23:33.792Z,1.97
2022-12-01T05:26:55.401Z,1.96
2022-12-01T05:30:17.541Z,1.98
2022-12-01T05:33:39.495Z,1.99
2022-12-01T05:37:01.277Z,1.99
2022-12-01T05:40:24.371Z,1.98
2022-12-01T05:43:45.938Z,1.98
2022-12-01T05:47:07.806Z,1.98
2022-12-01T05:50:31.432Z,1.96
2022-12-01T05:53:52.911Z,1.96
2022-12-01T05:57:16.236Z,1.97
2022-12-01T06:00:44.998Z,1.98
2022-12-01T06:04:08.827Z,1.99
2022-12-01T06:07:30.822Z,1.98
2022-12-01T06:10:52.792Z,1.96
2022-12-01T06:14:15.981Z,1.96
2022-12-01T06:17:40.470Z,1.97
2022-12-01T06:21:02.862Z,1.97
2022-12-01T06:24:25.018Z,2.01
2022-12-01T06:27:47.010Z,2.03
2022-12-01T06:31:10.078Z,2.03
2022-12-01T06:34:32.010Z,2.04
2022-12-01T06:37:54.588Z,2.01
2022-12-01T06:41:16.186Z,2.00
2022-12-01T06:44:38.019Z,1.97
2022-12-01T06:48:01.089Z,1.96
2022-12-01T06:51:22.934Z,1.94
2022-12-01T06:54:44.890Z,1.94
2022-12-01T06:58:07.258Z,1.93
2022-12-01T07:01:29.386Z,1.93
2022-12-01T07:04:52.559Z,1.92
2022-12-01T07:08:14.578Z,1.91
2022-12-01T07:11:37.039Z,1.92
2022-12-01T07:14:59.225Z,1.91
2022-12-01T07:18:20.851Z,1.89
2022-12-01T07:21:44.165Z,1.87
2022-12-01T07:25:06.472Z,1.88
2022-12-01T07:28:28.321Z,1.87
2022-12-01T07:31:49.906Z,1.88
2022-12-01T07:35:11.415Z,1.87
2022-12-01T07:38:35.767Z,1.85
2022-12-01T07:41:58.534Z,1.85
2022-12-01T07:45:20.406Z,1.85
2022-12-01T07:48:42.659Z,1.82
2022-12-01T07:52:04.835Z,1.83
2022-12-01T07:55:27.847Z,1.85
2022-12-01T07:58:49.695Z,1.84
2022-12-01T08:02:12.204Z,1.84
2022-12-01T08:05:34.114Z,1.84
2022-12-01T08:08:56.286Z,1.82
2022-12-01T08:12:19.509Z,1.82
2022-12-01T08:15:41.175Z,1.81
2022-12-01T08:19:03.161Z,1.82
2022-12-01T08:22:25.127Z,1.82
2022-12-01T08:25:47.049Z,1.83
2022-12-01T08:29:10.404Z,1.87
2022-12-01T08:32:32.527Z,1.88
2022-12-01T08:35:54.014Z,1.90
2022-12-01T08:39:16.119Z,1.91
2022-12-01T08:42:37.658Z,1.92
2022-12-01T08:46:02.081Z,1.93
2022-12-01T08:49:23.913Z,1.94
2022-12-01T08:52:45.722Z,1.97
2022-12-01T08:56:09.472Z,1.98
2022-12-01T08:59:31.045Z,2.02
2022-12-01T09:02:54.404Z,2.05
2022-12-01T09:06:17.685Z,2.06
2022-12-01T09:09:39.145Z,2.08
2022-12-01T09:13:01.427Z,2.08
2022-12-01T09:16:23.438Z,2.10
2022-12-01T09:19:46.835Z,2.14
2022-12-01T09:23:08.658Z,2.14
2022-12-01T09:26:30.499Z,2.11
2022-12-01T09:29:52.499Z,2.15
2022-12-01T09:33:15.601Z,2.17
2022-12-01T09:36:40.233Z,2.19
2022-12-01T09:40:01.953Z,2.19
2022-12-01T09:43:28.005Z,2.20
2022-12-01T09:46:56.289Z,2.24
2022-12-01T09:50:24.105Z,2.26
2022-12-01T09:53:50.295Z,2.29
2022-12-01T09:57:18.655Z,2.31
2022-12-01T10:00:44.341Z,2.32
2022-12-01T10:04:13.109Z,2.32
2022-12-01T10:07:40.251Z,2.31
2022-12-01T10:11:09.566Z,2.33
2022-12-01T10:14:36.877Z,2.35
2022-12-01T10:18:09.179Z,2.35
2022-12-01T10:21:51.060Z,2.35
2022-12-01T10:25:22.876Z,2.37
2022-12-01T10:29:11.690Z,2.40
2022-12-01T10:32:53.222Z,2.37
2022-12-01T10:36:15.062Z,2.38
2022-12-01T10:39:40.974Z,2.40
2022-12-01T10:43:03.884Z,2.42
2022-12-01T10:46:31.081Z,2.40
2022-12-01T10:49:53.645Z,2.41
2022-12-01T10:53:30.744Z,2.43
2022-12-01T10:56:58.160Z,2.43
2022-12-01T11:00:57.476Z,2.44
2022-12-01T11:04:08.998Z,2.42
2022-12-01T11:07:34.194Z,2.43
2022-12-01T11:10:56.674Z,2.42
2022-12-01T11:14:21.197Z,2.42
2022-12-01T11:17:44.532Z,2.42
2022-12-01T11:21:11.217Z,2.42
2022-12-01T11:24:43.105Z,2.41
2022-12-01T11:28:06.085Z,2.44
2022-12-01T11:31:39.512Z,2.45
2022-12-01T11:35:04.162Z,2.49
2022-12-01T11:38:35.050Z,2.49
2022-12-01T11:41:59.162Z,2.49
2022-12-01T11:45:29.225Z,2.52
2022-12-01T11:48:59.691Z,2.53
2022-12-01T11:52:28.450Z,2.56
2022-12-01T11:55:51.440Z,2.57
2022-12-01T11:59:17.892Z,2.58
2022-12-01T12:02:48.827Z,2.59
2022-12-01T12:10:15.775Z,2.59
2022-12-01T12:13:57.639Z,2.60
2022-12-01T12:17:30.982Z,2.60
2022-12-01T12:21:06.586Z,2.56
2022-12-01T12:24:48.838Z,2.56
2022-12-01T12:28:29.502Z,2.55
2022-12-01T12:32:05.008Z,2.54
2022-12-01T12:35:35.713Z,2.55
2022-12-01T12:39:12.149Z,2.55
2022-12-01T12:42:50.074Z,2.55
2022-12-01T12:46:14.126Z,2.54
2022-12-01T12:49:45.155Z,2.53
2022-12-01T12:53:16.929Z,2.53
2022-12-01T12:56:39.867Z,2.54
2022-12-01T13:00:06.415Z,2.54
2022-12-01T13:03:46.565Z,2.51
2022-12-01T13:07:29.552Z,2.53
2022-12-01T13:10:58.041Z,2.56
2022-12-01T13:14:26.986Z,2.57
2022-12-01T13:17:53.111Z,2.56
2022-12-01T13:21:18.783Z,2.57
2022-12-01T13:24:42.033Z,2.59
2022-12-01T13:28:07.000Z,2.62
2022-12-01T13:31:28.736Z,2.64
2022-12-01T13:34:50.943Z,2.66
2022-12-01T13:38:26.061Z,2.66
2022-12-01T13:42:02.097Z,2.67
2022-12-01T13:45:23.705Z,2.67
2022-12-01T13:48:53.668Z,2.66
2022-12-01T13:52:33.775Z,2.67
2022-12-01T13:56:20.878Z,2.66
2022-12-01T14:00:07.955Z,2.69
2022-12-01T14:03:41.603Z,2.70
2022-12-01T14:07:40.114Z,2.70
2022-12-01T14:11:04.535Z,2.71
2022-12-01T14:14:29.312Z,2.72
2022-12-01T14:18:02.521Z,2.73
2022-12-01T14:21:47.930Z,2.72
2022-12-01T14:25:25.702Z,2.73
2022-12-01T14:29:24.725Z,2.73
2022-12-01T14:32:46.611Z,2.74
2022-12-01T14:36:16.441Z,2.72
2022-12-01T14:39:42.348Z,2.70
2022-12-01T14:43:23.782Z,2.72
2022-12-01T14:46:50.263Z,2.69
2022-12-01T14:50:17.897Z,2.65
2022-12-01T14:53:45.750Z,2.64
2022-12-01T14:57:13.693Z,2.64
2022-12-01T15:00:39.368Z,2.64
2022-12-01T15:04:04.430Z,2.66
2022-12-01T15:07:26.077Z,2.67
2022-12-01T15:10:55.367Z,2.67
2022-12-01T15:14:26.332Z,2.68
2022-12-01T15:17:48.475Z,2.68
2022-12-01T15:21:14.171Z,2.70
2022-12-01T15:24:36.422Z,2.72
2022-12-01T15:28:15.082Z,2.72
2022-12-01T15:31:37.269Z,2.73
2022-12-01T15:35:01.920Z,2.74
2022-12-01T15:38:27.743Z,2.73
2022-12-01T15:41:54.117Z,2.74
2022-12-01T15:45:20.942Z,2.74
2022-12-01T15:48:43.391Z,2.77
2022-12-01T15:52:08.863Z,2.76
2022-12-01T15:55:33.232Z,2.77
2022-12-01T15:58:58.823Z,2.78
2022-12-01T16:02:29.028Z,2.77
2022-12-01T16:05:51.010Z,2.80
2022-12-01T16:09:22.650Z,2.81
2022-12-01T16:12:44.432Z,2.81
2022-12-01T16:16:23.416Z,2.78
2022-12-01T16:19:47.865Z,2.80
2022-12-01T16:23:12.716Z,2.78
2022-12-01T16:26:34.998Z,2.78
2022-12-01T16:29:59.079Z,2.77
2022-12-01T16:33:24.030Z,2.77
2022-12-01T16:36:47.227Z,2.77
2022-12-01T16:40:11.459Z,2.77
2022-12-01T16:43:33.227Z,2.77
2022-12-01T16:46:55.164Z,2.77
2022-12-01T16:50:17.859Z,2.78
2022-12-01T16:53:41.034Z,2.79
2022-12-01T16:57:02.831Z,2.78
2022-12-01T17:00:25.166Z,2.81
2022-12-01T17:03:47.418Z,2.82
2022-12-01T17:07:09.607Z,2.83
2022-12-01T17:10:32.858Z,2.84
2022-12-01T17:13:54.461Z,2.84
2022-12-01T17:17:16.618Z,2.86
2022-12-01T17:20:38.712Z,2.87
2022-12-01T17:24:00.289Z,2.88
2022-12-01T17:27:23.302Z,2.88
2022-12-01T17:30:44.952Z,2.88
2022-12-01T17:34:06.757Z,2.89
2022-12-01T17:37:29.657Z,2.91
2022-12-01T17:41:01.884Z,2.91
2022-12-01T17:44:25.114Z,2.93
2022-12-01T17:47:47.246Z,2.93
2022-12-01T17:51:09.806Z,2.91
2022-12-01T17:54:31.546Z,2.88
2022-12-01T17:57:53.408Z,2.90
2022-12-01T18:01:19.418Z,2.87
2022-12-01T18:04:41.824Z,2.86
2022-12-01T18:08:03.805Z,2.85
2022-12-01T18:11:25.722Z,2.83
2022-12-01T18:14:47.878Z,2.82
2022-12-01T18:18:11.024Z,2.82
2022-12-01T18:21:32.631Z,2.80
2022-12-01T18:24:54.193Z,2.82
2022-12-01T18:28:16.172Z,2.81
2022-12-01T18:31:38.846Z,2.81
2022-12-01T18:35:01.966Z,2.77
2022-12-01T18:38:24.935Z,2.78
2022-12-01T18:41:46.863Z,2.78
2022-12-01T18:45:09.594Z,2.80
2022-12-01T18:48:31.742Z,2.80
2022-12-01T18:51:54.931Z,2.80
2022-12-01T18:55:16.598Z,2.80
2022-12-01T18:58:38.663Z,2.78
2022-12-01T19:02:00.526Z,2.78
2022-12-01T19:05:22.570Z,2.77
2022-12-01T19:08:45.736Z,2.78
2022-12-01T19:12:08.463Z,2.78
2022-12-01T19:15:30.180Z,2.78
2022-12-01T19:18:52.170Z,2.77
2022-12-01T19:22:14.164Z,2.77
2022-12-01T19:25:37.859Z,2.77
2022-12-01T19:29:00.465Z,2.78
2022-12-01T19:32:24.324Z,2.78
2022-12-01T19:35:46.210Z,2.77
2022-12-01T19:39:08.362Z,2.77
2022-12-01T19:42:33.054Z,2.77
2022-12-01T19:45:54.720Z,2.80
2022-12-01T19:49:16.346Z,2.81
2022-12-01T19:52:38.916Z,2.82
2022-12-01T19:56:02.843Z,2.84
2022-12-01T19:59:26.159Z,2.83
2022-12-01T20:02:47.799Z,2.84
2022-12-01T20:06:11.892Z,2.86
2022-12-01T20:09:33.701Z,2.88
2022-12-01T20:12:55.349Z,2.85
2022-12-01T20:16:20.017Z,2.88
2022-12-01T20:19:41.696Z,2.87
2022-12-01T20:23:03.544Z,2.87
2022-12-01T20:26:30.437Z,2.86
2022-12-01T20:29:52.635Z,2.88
2022-12-01T20:33:16.633Z,2.89
2022-12-01T20:36:40.550Z,2.91
2022-12-01T20:40:02.867Z,2.89
2022-12-01T20:43:24.760Z,2.90
2022-12-01T20:46:47.590Z,2.90
2022-12-01T20:50:11.709Z,2.92
2022-12-01T20:53:34.332Z,2.92
2022-12-01T20:56:56.205Z,2.93
2022-12-01T21:00:18.433Z,2.93
2022-12-01T21:03:42.014Z,2.92
2022-12-01T21:07:05.463Z,2.93
2022-12-01T21:10:27.578Z,2.94
2022-12-01T21:13:48.579Z,2.97
2022-12-01T21:17:24.544Z,2.98
2022-12-01T21:20:49.796Z,2.98
2022-12-01T21:24:17.065Z,2.99
2022-12-01T21:27:38.728Z,2.99
2022-12-01T21:31:08.300Z,2.99
2022-12-01T21:34:30.596Z,3.01
2022-12-01T21:37:59.250Z,3.00
2022-12-01T21:41:27.222Z,2.99
2022-12-01T21:44:49.706Z,3.01
2022-12-01T21:48:16.908Z,3.01
2022-12-01T21:51:38.959Z,3.00
2022-12-01T21:55:03.454Z,2.99
2022-12-01T21:58:30.211Z,2.99
2022-12-01T22:01:54.684Z,2.98
2022-12-01T22:05:28.322Z,3.00
2022-12-01T22:08:52.439Z,3.01
2022-12-01T22:12:25.450Z,2.98
2022-12-01T22:15:48.779Z,3.00
2022-12-01T22:19:25.929Z,3.00
2022-12-01T22:22:47.868Z,3.02
2022-12-01T22:26:17.506Z,3.01
2022-12-01T22:29:43.023Z,3.01
2022-12-01T22:33:11.950Z,3.01
2022-12-01T22:36:34.386Z,3.02
2022-12-01T22:39:57.481Z,3.01
2022-12-01T22:43:30.999Z,3.00
2022-12-01T22:46:53.228Z,2.95
2022-12-01T22:50:27.425Z,2.96
2022-12-01T22:53:49.933Z,2.98
2022-12-01T22:57:25.120Z,2.99
2022-12-01T23:00:46.968Z,2.98
2022-12-01T23:04:27.564Z,3.01
2022-12-01T23:07:51.425Z,3.02
2022-12-01T23:11:13.573Z,3.02
2022-12-01T23:14:35.773Z,3.02
2022-12-01T23:17:59.911Z,3.01
2022-12-01T23:21:21.411Z,3.01
2022-12-01T23:24:45.031Z,3.00
2022-12-01T23:28:08.886Z,3.01
2022-12-01T23:31:31.064Z,3.03
2022-12-01T23:34:58.400Z,3.05
2022-12-01T23:38:24.598Z,3.03
2022-12-01T23:41:51.171Z,3.06
2022-12-01T23:45:17.650Z,3.02
2022-12-01T23:48:42.675Z,3.06
2022-12-01T23:52:05.263Z,3.06
2022-12-01T23:55:29.631Z,3.04
2022-12-01T23:58:53.802Z,3.05
